Time;durP1;ratioP1;P1;durP2;ratioP2;P2;SDS_P1;SDS_P2;PMS_P1;PMS_P2;Temp;Humidity;BMP_temperature;BMP_pressure;BME280_temperature;BME280_humidity;BME280_pressure;Samples;Min_cycle;Max_cycle;Signal;HPM_P1;HPM_P2
2021/12/08 00:01:09;;;;;;;8.60;7.70;;;;;;;0.40;100.00;99251.63;1656923;86;21004;-78
2021/12/08 00:03:38;;;;;;;7.23;6.40;;;;;;;0.43;100.00;99258.36;1670193;84;21103;-78
2021/12/08 00:06:04;;;;;;;10.77;8.33;;;;;;;0.45;100.00;99245.74;1644406;86;21102;-79
2021/12/08 00:08:33;;;;;;;12.07;9.80;;;;;;;0.44;100.00;99250.22;1686781;83;21514;-80
2021/12/08 00:13:30;;;;;;;5.87;5.33;;;;;;;0.44;100.00;99263.95;1712918;83;21017;-84
2021/12/08 00:16:00;;;;;;;10.53;9.43;;;;;;;0.41;100.00;99252.44;1738142;81;21606;-78
2021/12/08 00:18:29;;;;;;;8.80;7.83;;;;;;;0.41;100.00;99245.33;1689598;83;21563;-75
2021/12/08 00:20:59;;;;;;;9.00;7.73;;;;;;;0.38;100.00;99248.34;1688686;82;20996;-77
2021/12/08 00:23:25;;;;;;;10.20;8.67;;;;;;;0.34;100.00;99244.46;1687347;85;21756;-76
2021/12/08 00:25:51;;;;;;;11.17;9.03;;;;;;;0.31;100.00;99234.28;1687116;84;21498;-74
2021/12/08 00:28:18;;;;;;;6.87;6.27;;;;;;;0.35;100.00;99246.60;1720431;82;21532;-79
2021/12/08 00:30:51;;;;;;;10.63;9.47;;;;;;;0.29;100.00;99244.73;1712053;82;21104;-79
2021/12/08 00:33:19;;;;;;;10.20;9.07;;;;;;;0.28;100.00;99245.27;1686772;84;20894;-79
2021/12/08 00:35:48;;;;;;;9.53;8.33;;;;;;;0.34;100.00;99255.04;1700740;82;21233;-79
2021/12/08 00:38:17;;;;;;;7.47;6.70;;;;;;;0.37;100.00;99263.92;1722952;82;20950;-82
2021/12/08 00:40:43;;;;;;;9.87;8.17;;;;;;;0.43;100.00;99261.80;1726897;82;20983;-75
2021/12/08 00:43:10;;;;;;;10.40;8.93;;;;;;;0.44;100.00;99263.95;1745455;81;20979;-79
2021/12/08 00:45:36;;;;;;;11.43;10.10;;;;;;;0.42;100.00;99272.59;1723966;81;21095;-79
2021/12/08 00:48:02;;;;;;;11.80;9.80;;;;;;;0.43;100.00;99263.66;1702711;84;22119;-80
2021/12/08 00:50:32;;;;;;;14.77;9.33;;;;;;;0.41;100.00;99269.63;1708610;82;20985;-80
2021/12/08 00:52:58;;;;;;;10.50;9.37;;;;;;;0.39;100.00;99270.32;1712277;83;21157;-81
2021/12/08 00:55:25;;;;;;;11.07;9.97;;;;;;;0.42;100.00;99272.09;1708728;83;21064;-79
2021/12/08 00:57:52;;;;;;;10.47;7.97;;;;;;;0.47;100.00;99269.37;1716530;83;21073;-82
2021/12/08 01:00:24;;;;;;;11.03;10.00;;;;;;;0.39;100.00;99260.56;1701838;82;50202;-79
2021/12/08 01:02:50;;;;;;;11.90;10.57;;;;;;;0.39;100.00;99253.13;1692904;83;21608;-79
2021/12/08 01:05:21;;;;;;;12.53;10.57;;;;;;;0.42;100.00;99265.48;1697789;84;20990;-80
2021/12/08 01:07:48;;;;;;;12.27;10.20;;;;;;;0.44;100.00;99257.33;1692037;84;21044;-80
2021/12/08 01:10:20;;;;;;;11.63;9.10;;;;;;;0.47;100.00;99253.50;1711006;82;21068;-77
2021/12/08 01:12:49;;;;;;;10.17;9.10;;;;;;;0.48;100.00;99253.81;1721219;81;21569;-78
2021/12/08 01:15:17;;;;;;;10.20;8.77;;;;;;;0.46;100.00;99243.42;1719249;83;21034;-78
2021/12/08 01:17:44;;;;;;;9.53;8.53;;;;;;;0.49;100.00;99244.34;1661044;85;21130;-76
2021/12/08 01:20:13;;;;;;;10.73;9.40;;;;;;;0.49;100.00;99238.22;1666118;85;21123;-77
2021/12/08 01:22:39;;;;;;;12.60;9.53;;;;;;;0.47;100.00;99230.51;1679866;84;21493;-77
2021/12/08 01:25:07;;;;;;;11.63;9.30;;;;;;;0.46;100.00;99228.05;1680004;84;21044;-78
2021/12/08 01:27:35;;;;;;;13.30;9.40;;;;;;;0.40;100.00;99227.00;1679864;84;20972;-75
2021/12/08 01:30:03;;;;;;;12.93;10.40;;;;;;;0.42;100.00;99227.62;1679565;84;21008;-79
2021/12/08 01:32:33;;;;;;;12.00;9.07;;;;;;;0.40;100.00;99226.50;1702606;83;21080;-80
2021/12/08 01:35:01;;;;;;;9.57;8.53;;;;;;;0.40;100.00;99229.64;1708399;83;21036;-80
2021/12/08 01:37:29;;;;;;;11.27;8.43;;;;;;;0.39;100.00;99224.03;1708488;83;21039;-79
2021/12/08 01:39:58;;;;;;;9.77;8.37;;;;;;;0.43;100.00;99231.38;1686860;83;21089;-78
2021/12/08 01:42:30;;;;;;;11.33;10.10;;;;;;;0.47;100.00;99234.47;1647617;86;21007;-79
2021/12/08 01:47:40;;;;;;;10.53;8.63;;;;;;;0.48;100.00;99233.97;1719600;83;20953;-79
2021/12/08 01:50:09;;;;;;;13.50;10.47;;;;;;;0.48;100.00;99237.41;1662142;84;21522;-79
2021/12/08 01:52:35;;;;;;;10.30;8.80;;;;;;;0.47;100.00;99236.30;1662203;84;20995;-79
2021/12/08 01:55:03;;;;;;;10.07;8.27;;;;;;;0.47;100.00;99237.63;1649898;86;21060;-79
2021/12/08 01:57:30;;;;;;;10.67;9.13;;;;;;;0.45;100.00;99236.48;1641395;87;21058;-80
2021/12/08 01:59:56;;;;;;;10.57;8.63;;;;;;;0.46;100.00;99232.83;1658585;84;21705;-80
2021/12/08 02:02:22;;;;;;;11.13;9.67;;;;;;;0.46;100.00;99234.16;1694682;84;21007;-79
2021/12/08 02:04:49;;;;;;;10.17;8.57;;;;;;;0.44;100.00;99230.87;1677335;84;21573;-78
2021/12/08 02:07:17;;;;;;;11.57;8.37;;;;;;;0.40;100.00;99237.08;1695343;84;21591;-79
2021/12/08 02:09:43;;;;;;;11.47;8.87;;;;;;;0.37;100.00;99229.54;1689438;84;21055;-80
2021/12/08 02:12:10;;;;;;;11.97;9.77;;;;;;;0.37;100.00;99232.69;1623259;87;21019;-79
2021/12/08 02:14:36;;;;;;;10.40;8.87;;;;;;;0.35;100.00;99232.05;1641560;85;21054;-79
2021/12/08 02:17:03;;;;;;;9.20;8.20;;;;;;;0.32;100.00;99224.52;1624244;87;21586;-82
2021/12/08 02:19:29;;;;;;;9.70;8.70;;;;;;;0.33;100.00;99226.16;1617695;87;21054;-80
2021/12/08 02:21:56;;;;;;;9.53;8.17;;;;;;;0.35;100.00;99219.66;1644766;87;22238;-81
2021/12/08 02:24:22;;;;;;;11.40;8.87;;;;;;;0.35;100.00;99214.86;1643025;86;21051;-85
2021/12/08 02:26:50;;;;;;;11.20;9.57;;;;;;;0.34;100.00;99215.87;1639984;87;21542;-84
2021/12/08 02:29:33;;;;;;;13.23;8.37;;;;;;;0.38;100.00;99212.64;1641175;87;21586;-85
2021/12/08 02:32:01;;;;;;;10.97;8.10;;;;;;;0.43;100.00;99219.48;1666343;85;21019;-86
2021/12/08 02:48:08;;;;;;;12.63;10.30;;;;;;;0.49;100.00;99220.52;1693469;83;21074;-86
2021/12/08 02:50:41;;;;;;;11.93;9.87;;;;;;;0.49;100.00;99217.88;1682736;84;21541;-87
2021/12/08 02:53:09;;;;;;;15.78;9.73;;;;;;;0.51;100.00;99224.31;1639136;86;21134;-87
2021/12/08 02:55:36;;;;;;;14.45;10.80;;;;;;;0.44;100.00;99223.77;1693891;84;21571;-87
2021/12/08 02:58:03;;;;;;;14.27;11.40;;;;;;;0.44;100.00;99235.66;1709350;84;21048;-86
2021/12/08 03:00:33;;;;;;;13.90;10.23;;;;;;;0.45;100.00;99221.94;1695255;83;21031;-89
2021/12/08 03:03:01;;;;;;;9.27;7.50;;;;;;;0.44;100.00;99234.34;1692280;84;20995;-83
2021/12/08 03:05:29;;;;;;;11.70;8.43;;;;;;;0.46;100.00;99226.73;1692552;84;21137;-83
2021/12/08 03:07:55;;;;;;;12.53;8.77;;;;;;;0.46;100.00;99227.55;1692009;84;21064;-83
2021/12/08 03:10:25;;;;;;;11.03;8.03;;;;;;;0.45;100.00;99231.20;1690384;83;20849;-84
2021/12/08 03:12:53;;;;;;;11.30;9.77;;;;;;;0.36;100.00;99223.94;1693576;84;20994;-83
2021/12/08 03:15:20;;;;;;;11.90;9.73;;;;;;;0.33;100.00;99213.77;1676436;83;20949;-79
2021/12/08 03:17:47;;;;;;;10.63;9.50;;;;;;;0.29;100.00;99213.00;1680950;83;21114;-78
2021/12/08 03:20:20;;;;;;;10.80;8.83;;;;;;;0.33;100.00;99219.55;1645172;86;21062;-80
2021/12/08 03:22:47;;;;;;;12.67;9.67;;;;;;;0.35;100.00;99209.58;1645336;86;21048;-78
2021/12/08 03:25:16;;;;;;;14.93;9.60;;;;;;;0.30;100.00;99214.13;1680416;85;20992;-80
2021/12/08 03:27:50;;;;;;;11.27;8.60;;;;;;;0.27;100.00;99202.63;1692608;84;21067;-83
2021/12/08 03:30:15;;;;;;;10.43;9.33;;;;;;;0.30;100.00;99199.59;1709156;83;21237;-79
2021/12/08 03:32:40;;;;;;;11.80;10.30;;;;;;;0.31;100.00;99203.05;1661803;84;21046;-79
2021/12/08 03:35:10;;;;;;;13.73;10.60;;;;;;;0.30;100.00;99206.70;1707409;83;21043;-78
2021/12/08 03:37:40;;;;;;;11.53;9.27;;;;;;;0.32;100.00;99213.95;1661324;85;21555;-80
2021/12/08 03:40:11;;;;;;;14.90;10.80;;;;;;;0.32;100.00;99209.98;1662659;85;21004;-78
2021/12/08 03:42:38;;;;;;;17.07;9.70;;;;;;;0.25;100.00;99211.25;1637310;85;21060;-78
2021/12/08 03:45:10;;;;;;;9.50;7.47;;;;;;;0.29;100.00;99209.03;1644136;86;21067;-78
2021/12/08 03:47:39;;;;;;;9.50;7.97;;;;;;;0.31;100.00;99206.52;1631230;86;21501;-79
2021/12/08 03:50:09;;;;;;;12.80;10.00;;;;;;;0.30;100.00;99215.95;1683227;84;21031;-78
2021/12/08 03:52:37;;;;;;;11.67;10.30;;;;;;;0.30;100.00;99217.28;1641423;86;21094;-79
2021/12/08 03:55:09;;;;;;;11.57;9.17;;;;;;;0.29;100.00;99207.20;1707933;83;21080;-78
2021/12/08 03:57:36;;;;;;;12.15;9.78;;;;;;;0.33;100.00;99207.15;1717193;83;21038;-79
2021/12/08 04:00:10;;;;;;;11.53;9.83;;;;;;;0.27;100.00;99196.52;1622968;86;20999;-78
2021/12/08 04:02:37;;;;;;;9.77;8.07;;;;;;;0.26;100.00;99202.31;1632281;84;21082;-78
2021/12/08 04:05:06;;;;;;;14.07;10.63;;;;;;;0.26;100.00;99203.64;1645163;86;21088;-78
2021/12/08 04:07:32;;;;;;;12.43;10.83;;;;;;;0.26;100.00;99202.82;1691769;84;21139;-78
2021/12/08 04:09:58;;;;;;;10.50;9.33;;;;;;;0.25;100.00;99202.00;1691901;83;20967;-79
2021/12/08 04:12:25;;;;;;;11.00;8.80;;;;;;;0.27;100.00;99201.81;1677983;84;20987;-79
2021/12/08 04:14:56;;;;;;;12.93;10.83;;;;;;;0.30;100.00;99211.48;1698119;84;21083;-78
2021/12/08 04:17:37;;;;;;;11.83;8.60;;;;;;;0.28;100.00;99213.53;1709551;83;21058;-81
2021/12/08 04:20:08;;;;;;;10.57;8.73;;;;;;;0.27;100.00;99208.42;1692182;84;21206;-81
2021/12/08 04:22:39;;;;;;;11.17;9.33;;;;;;;0.29;100.00;99217.78;1697994;84;21054;-83
2021/12/08 04:25:09;;;;;;;11.47;9.47;;;;;;;0.29;100.00;99206.38;1697911;84;21055;-84
2021/12/08 04:27:38;;;;;;;11.07;9.33;;;;;;;0.30;100.00;99215.45;1689686;84;21070;-82
2021/12/08 04:30:08;;;;;;;14.90;10.60;;;;;;;0.34;100.00;99210.58;1619418;86;21064;-81
2021/12/08 04:32:37;;;;;;;14.03;9.83;;;;;;;0.39;100.00;99205.52;1718840;81;21122;-82
2021/12/08 04:35:04;;;;;;;9.87;8.00;;;;;;;0.39;100.00;99198.91;1645019;86;21094;-82
2021/12/08 04:37:34;;;;;;;11.33;9.40;;;;;;;0.39;100.00;99218.74;1697631;84;21046;-81
2021/12/08 04:45:33;;;;;;;10.17;9.10;;;;;;;0.36;100.00;99202.77;1702261;83;21802;-81
2021/12/08 04:48:21;;;;;;;13.20;9.77;;;;;;;0.33;100.00;99211.11;1697011;83;21623;-83
2021/12/08 04:53:38;;;;;;;11.27;9.10;;;;;;;0.40;100.00;99207.16;1691198;84;21043;-82
2021/12/08 05:06:46;;;;;;;10.70;8.60;;;;;;;0.42;100.00;99210.44;1717755;83;20967;-85
2021/12/08 05:09:16;;;;;;;10.77;8.83;;;;;;;0.44;100.00;99213.18;1675964;84;22254;-84
2021/12/08 05:11:47;;;;;;;11.57;9.33;;;;;;;0.47;100.00;99211.99;1696532;84;20877;-82
2021/12/08 05:14:24;;;;;;;10.63;8.67;;;;;;;0.52;100.00;99220.16;1718447;83;21559;-82
2021/12/08 05:16:56;;;;;;;10.77;8.90;;;;;;;0.52;100.00;99225.95;1681392;84;21054;-83
2021/12/08 05:19:26;;;;;;;10.90;8.27;;;;;;;0.50;100.00;99226.13;1684090;83;21039;-84
2021/12/08 05:22:06;;;;;;;12.40;9.63;;;;;;;0.49;100.00;99219.20;1632512;87;21085;-86
2021/12/08 05:24:37;;;;;;;12.30;11.07;;;;;;;0.47;100.00;99218.60;1653046;86;21604;-82
2021/12/08 05:27:17;;;;;;;8.10;7.08;;;;;;;0.48;100.00;99222.06;1654147;85;21011;-82
2021/12/08 05:29:50;;;;;;;12.30;9.37;;;;;;;0.47;100.00;99227.86;1675177;83;21075;-84
2021/12/08 05:32:16;;;;;;;13.27;10.13;;;;;;;0.48;100.00;99222.86;1691608;84;21544;-84
2021/12/08 05:34:43;;;;;;;11.40;9.20;;;;;;;0.50;100.00;99220.84;1691181;84;21536;-82
2021/12/08 05:37:10;;;;;;;9.07;6.73;;;;;;;0.52;100.00;99238.67;1672132;83;21059;-81
2021/12/08 05:39:37;;;;;;;9.73;8.27;;;;;;;0.50;100.00;99224.81;1721555;83;21008;-80
2021/12/08 05:42:09;;;;;;;8.53;7.30;;;;;;;0.52;100.00;99235.20;1691768;83;21035;-80
2021/12/08 05:44:36;;;;;;;9.03;7.60;;;;;;;0.55;100.00;99234.80;1632346;87;21072;-80
2021/12/08 05:47:07;;;;;;;9.83;7.10;;;;;;;0.58;100.00;99234.40;1652978;86;21111;-81
2021/12/08 05:49:36;;;;;;;10.60;7.67;;;;;;;0.57;100.00;99232.79;1652817;86;21526;-81
2021/12/08 05:52:03;;;;;;;11.27;9.07;;;;;;;0.60;100.00;99231.06;1645588;86;21628;-81
2021/12/08 05:54:35;;;;;;;9.03;6.97;;;;;;;0.59;100.00;99244.80;1680616;83;21067;-81
2021/12/08 05:57:20;;;;;;;8.15;7.33;;;;;;;0.61;100.00;99234.84;1649661;86;21045;-79
2021/12/08 05:59:48;;;;;;;9.20;8.00;;;;;;;0.64;100.00;99240.23;1700702;83;21039;-81
2021/12/08 06:02:20;;;;;;;9.93;8.77;;;;;;;0.64;100.00;99239.73;1664077;86;21160;-83
2021/12/08 06:04:48;;;;;;;10.83;8.53;;;;;;;0.62;100.00;99235.16;1687131;83;21116;-85
2021/12/08 06:07:14;;;;;;;9.00;7.37;;;;;;;0.56;100.00;99240.41;1710545;83;21075;-83
2021/12/08 06:09:42;;;;;;;7.50;6.10;;;;;;;0.52;100.00;99241.31;1700508;83;21051;-84
2021/12/08 06:12:09;;;;;;;7.43;5.50;;;;;;;0.54;100.00;99235.81;1697078;84;21093;-83
2021/12/08 06:14:38;;;;;;;9.53;8.27;;;;;;;0.55;100.00;99227.69;1670055;84;22105;-88
2021/12/08 06:17:11;;;;;;;8.07;6.93;;;;;;;0.57;100.00;99242.88;1695854;83;21050;-88
2021/12/08 06:19:41;;;;;;;6.57;5.17;;;;;;;0.60;100.00;99240.33;1720914;83;21043;-86
2021/12/08 06:22:15;;;;;;;10.33;9.27;;;;;;;0.58;100.00;99251.09;1718772;83;21090;-90
2021/12/08 06:24:41;;;;;;;9.60;8.00;;;;;;;0.61;100.00;99253.37;1664307;86;21065;-86
2021/12/08 06:27:14;;;;;;;8.87;7.87;;;;;;;0.62;100.00;99248.39;1668051;84;21103;-86
2021/12/08 06:29:47;;;;;;;8.70;6.93;;;;;;;0.65;100.00;99240.05;1699085;83;20972;-86
2021/12/08 06:32:16;;;;;;;10.20;7.00;;;;;;;0.71;100.00;99243.23;1646603;84;21043;-88
2021/12/08 06:34:56;;;;;;;10.68;7.85;;;;;;;0.63;100.00;99242.06;1679387;84;21110;-87
2021/12/08 06:37:32;;;;;;;7.73;6.30;;;;;;;0.61;100.00;99245.43;1667635;84;21091;-88
2021/12/08 06:40:25;;;;;;;6.60;5.50;;;;;;;0.58;100.00;99233.08;1662119;86;21514;-85
2021/12/08 06:42:55;;;;;;;6.27;5.43;;;;;;;0.56;100.00;99235.94;1717985;83;21101;-85
2021/12/08 06:45:29;;;;;;;7.83;6.13;;;;;;;0.58;100.00;99235.22;1658653;86;21039;-84
2021/12/08 06:48:04;;;;;;;7.42;6.58;;;;;;;0.61;100.00;99230.05;1698370;84;21000;-85
2021/12/08 06:50:40;;;;;;;14.80;9.10;;;;;;;0.60;100.00;99235.03;1664769;86;21060;-82
2021/12/08 06:53:09;;;;;;;8.97;7.23;;;;;;;0.60;100.00;99237.67;1641245;87;21898;-83
2021/12/08 06:55:45;;;;;;;8.67;7.63;;;;;;;0.57;100.00;99223.53;1668686;85;21014;-83
2021/12/08 06:58:20;;;;;;;16.70;11.17;;;;;;;0.62;100.00;99235.16;1695143;84;21053;-84
2021/12/08 07:01:16;;;;;;;11.23;8.17;;;;;;;0.61;100.00;99231.37;1675151;84;21111;-83
2021/12/08 07:04:08;;;;;;;8.97;6.60;;;;;;;0.61;100.00;99228.73;1668798;83;21012;-86
2021/12/08 07:06:43;;;;;;;18.77;11.73;;;;;;;0.65;100.00;99237.41;1661617;84;21068;-85
2021/12/08 07:08:58;;;;;;;12.43;9.20;;;;;;;0.68;100.00;99234.85;1674281;84;21007;-88
2021/12/08 07:11:25;;;;;;;11.57;8.03;;;;;;;0.68;100.00;99237.50;1696874;84;21328;-86
2021/12/08 07:16:40;;;;;;;;;;;;;;;0.66;100.00;99220.52;1699459;84;20948;-86
2021/12/08 07:19:27;;;;;;;10.33;7.87;;;;;;;0.69;100.00;99226.73;1659571;84;21801;-87
2021/12/08 07:21:45;;;;;;;10.37;6.20;;;;;;;0.69;100.00;99225.91;1668497;83;20971;-86
2021/12/08 07:24:16;;;;;;;9.17;6.87;;;;;;;0.66;100.00;99224.98;1676084;83;21464;-87
2021/12/08 07:26:47;;;;;;;9.13;6.50;;;;;;;0.65;100.00;99224.17;1677938;84;21031;-91
2021/12/08 07:29:19;;;;;;;10.83;9.07;;;;;;;0.64;100.00;99236.27;1685032;83;21082;-88
2021/12/08 07:31:53;;;;;;;8.73;5.80;;;;;;;0.66;100.00;99226.31;1727876;83;21221;-88
2021/12/08 07:34:21;;;;;;;7.70;4.83;;;;;;;0.65;100.00;99226.82;1735937;82;21047;-88
2021/12/08 07:36:59;;;;;;;8.43;5.13;;;;;;;0.64;100.00;99212.45;1673485;85;21103;-88
2021/12/08 07:39:42;;;;;;;6.37;5.37;;;;;;;0.68;100.00;99213.69;1709648;82;20959;-85
2021/12/08 07:42:17;;;;;;;9.37;6.07;;;;;;;0.67;100.00;99214.72;1734887;82;21106;-85
2021/12/08 07:44:49;;;;;;;7.57;5.43;;;;;;;0.65;100.00;99216.23;1684847;82;21481;-88
2021/12/08 07:47:23;;;;;;;7.37;6.03;;;;;;;0.65;100.00;99209.62;1733578;82;21072;-86
2021/12/08 07:50:00;;;;;;;7.77;5.83;;;;;;;0.65;100.00;99212.77;1708416;82;21059;-85
2021/12/08 07:52:36;;;;;;;6.08;5.10;;;;;;;0.66;100.00;99223.16;1702377;83;21055;-87
2021/12/08 07:55:13;;;;;;;6.00;5.40;;;;;;;0.68;100.00;99213.69;1699855;83;20968;-85
2021/12/08 07:57:46;;;;;;;5.63;4.83;;;;;;;0.69;100.00;99221.94;1701417;83;21327;-88
2021/12/08 08:00:31;;;;;;;7.17;6.17;;;;;;;0.66;100.00;99215.73;1724141;83;20980;-88
2021/12/08 08:02:58;;;;;;;8.13;5.43;;;;;;;0.65;100.00;99225.49;1698716;83;21071;-90
2021/12/08 08:05:28;;;;;;;5.53;4.70;;;;;;;0.67;100.00;99227.42;1699371;83;21098;-89
2021/12/08 08:07:57;;;;;;;7.57;5.00;;;;;;;0.69;100.00;99219.30;1727734;83;21031;-92
2021/12/08 08:10:28;;;;;;;6.67;4.83;;;;;;;0.65;100.00;99224.67;1699572;83;21596;-89
2021/12/08 08:13:08;;;;;;;8.47;6.27;;;;;;;0.68;100.00;99220.30;1725739;83;21485;-91
2021/12/08 08:15:43;;;;;;;7.03;5.63;;;;;;;0.71;100.00;99213.31;1727904;82;21010;-87
2021/12/08 08:18:11;;;;;;;9.27;5.00;;;;;;;0.72;100.00;99210.98;1699911;83;20955;-85
2021/12/08 08:20:44;;;;;;;9.17;6.67;;;;;;;0.69;100.00;99220.61;1727783;83;20955;-85
2021/12/08 08:23:13;;;;;;;14.40;8.60;;;;;;;0.69;100.00;99208.70;1728724;83;21109;-85
2021/12/08 08:25:42;;;;;;;13.43;6.97;;;;;;;0.69;100.00;99204.73;1698791;83;21695;-84
2021/12/08 08:28:10;;;;;;;5.73;4.80;;;;;;;0.65;100.00;99209.62;1728526;83;21023;-87
2021/12/08 08:30:42;;;;;;;6.77;5.03;;;;;;;0.63;100.00;99187.00;1728366;83;20983;-87
2021/12/08 08:33:10;;;;;;;5.17;4.57;;;;;;;0.64;100.00;99188.13;1699684;83;21619;-86
2021/12/08 08:35:44;;;;;;;6.20;5.20;;;;;;;0.68;100.00;99195.16;1699846;83;21536;-86
2021/12/08 08:38:18;;;;;;;6.77;5.63;;;;;;;0.67;100.00;99201.49;1700945;83;20963;-88
2021/12/08 08:40:50;;;;;;;6.20;4.60;;;;;;;0.65;100.00;99196.89;1728340;83;21477;-85
2021/12/08 08:43:22;;;;;;;7.67;6.57;;;;;;;0.65;100.00;99206.16;1727824;83;21235;-85
2021/12/08 08:46:06;;;;;;;6.20;4.47;;;;;;;0.66;100.00;99200.67;1728092;82;20996;-86
2021/12/08 08:48:41;;;;;;;7.00;4.97;;;;;;;0.67;100.00;99199.63;1664955;86;21203;-83
2021/12/08 08:51:25;;;;;;;6.00;5.10;;;;;;;0.72;100.00;99193.23;1661467;82;21043;-86
2021/12/08 08:53:56;;;;;;;11.93;6.97;;;;;;;0.76;100.00;99202.44;1643798;87;21019;-83
2021/12/08 08:56:26;;;;;;;7.73;6.17;;;;;;;0.79;100.00;99203.86;1624359;87;21012;-81
2021/12/08 08:58:56;;;;;;;6.03;4.83;;;;;;;0.80;100.00;99194.41;1681885;83;21010;-84
2021/12/08 09:01:37;;;;;;;6.40;5.25;;;;;;;0.81;100.00;99202.66;1626324;87;21075;-81
2021/12/08 09:04:11;;;;;;;7.87;6.72;;;;;;;0.80;100.00;99186.47;1670722;84;21026;-82
2021/12/08 09:06:45;;;;;;;8.80;7.30;;;;;;;0.81;100.00;99184.64;1694959;84;21086;-84
2021/12/08 09:09:22;;;;;;;9.48;6.22;;;;;;;0.80;100.00;99187.79;1696318;83;21058;-83
2021/12/08 09:11:57;;;;;;;8.80;6.03;;;;;;;0.78;100.00;99188.48;1661922;85;21032;-84
2021/12/08 09:14:37;;;;;;;9.27;7.80;;;;;;;0.78;100.00;99186.34;1679733;84;21036;-87
2021/12/08 09:17:29;;;;;;;7.40;5.63;;;;;;;0.81;100.00;99187.28;1673339;84;21518;-88
2021/12/08 09:20:38;;;;;;;6.70;5.80;;;;;;;0.82;100.00;99195.52;1644605;87;21031;-84
2021/12/08 09:23:23;;;;;;;7.90;6.67;;;;;;;0.84;100.00;99182.91;1669651;86;21032;-86
2021/12/08 09:26:00;;;;;;;10.47;8.13;;;;;;;0.81;100.00;99186.78;1672050;84;21031;-84
2021/12/08 09:28:33;;;;;;;19.60;13.07;;;;;;;0.80;100.00;99190.44;1622395;87;21099;-83
2021/12/08 09:31:10;;;;;;;15.87;12.60;;;;;;;0.78;100.00;99189.80;1610153;89;21011;-84
2021/12/08 09:33:47;;;;;;;12.03;10.33;;;;;;;0.80;100.00;99181.68;1674314;85;21543;-85
2021/12/08 09:36:21;;;;;;;12.53;8.33;;;;;;;0.82;100.00;99180.95;1674603;84;21535;-85
2021/12/08 09:39:06;;;;;;;9.70;8.70;;;;;;;0.81;100.00;99185.46;1668541;85;21106;-85
2021/12/08 09:41:43;;;;;;;19.67;10.90;;;;;;;0.81;100.00;99181.48;1640741;87;21193;-85
2021/12/08 09:44:15;;;;;;;6.97;5.83;;;;;;;0.80;100.00;99194.41;1667054;84;21579;-84
2021/12/08 09:46:46;;;;;;;7.87;6.43;;;;;;;0.81;100.00;99187.28;1623465;87;20987;-87
2021/12/08 09:49:19;;;;;;;11.43;9.13;;;;;;;0.81;100.00;99175.38;1667763;85;21003;-86
2021/12/08 09:51:53;;;;;;;14.53;10.37;;;;;;;0.78;100.00;99187.16;1649188;86;21019;-80
2021/12/08 09:54:19;;;;;;;13.53;10.60;;;;;;;0.78;100.00;99186.34;1672987;84;21102;-77
2021/12/08 09:56:49;;;;;;;10.67;9.10;;;;;;;0.81;100.00;99187.28;1667516;84;20995;-78
2021/12/08 09:59:19;;;;;;;16.27;10.53;;;;;;;0.77;100.00;99185.52;1641767;87;21041;-77
2021/12/08 10:01:49;;;;;;;12.97;9.07;;;;;;;0.76;100.00;99187.89;1662521;85;21071;-77
2021/12/08 10:04:15;;;;;;;11.07;8.00;;;;;;;0.73;100.00;99164.95;1656917;84;21580;-78
2021/12/08 10:06:49;;;;;;;13.33;8.03;;;;;;;0.69;100.00;99175.12;1695483;84;21887;-83
2021/12/08 10:09:16;;;;;;;9.75;8.00;;;;;;;0.71;100.00;99175.75;1667915;85;21707;-83
2021/12/08 10:12:03;;;;;;;12.90;8.65;;;;;;;0.71;100.00;99174.94;1650493;86;21110;-92
2021/12/08 10:14:37;;;;;;;12.23;9.60;;;;;;;0.68;100.00;99164.23;1681689;84;21143;-75
2021/12/08 10:17:04;;;;;;;10.33;7.50;;;;;;;0.64;100.00;99155.06;1695144;84;21011;-72
2021/12/08 10:19:30;;;;;;;10.73;6.77;;;;;;;0.62;100.00;99153.14;1695113;84;21078;-72
2021/12/08 10:22:06;;;;;;;8.97;7.73;;;;;;;0.63;100.00;99159.22;1676988;84;21070;-85
2021/12/08 10:24:38;;;;;;;13.50;9.03;;;;;;;0.65;100.00;99151.91;1671287;83;21085;-83
2021/12/08 10:27:09;;;;;;;9.60;8.60;;;;;;;0.68;100.00;99154.14;1645517;83;21072;-84
2021/12/08 10:29:37;;;;;;;8.83;7.72;;;;;;;0.72;100.00;99151.44;1680782;84;21520;-91
2021/12/08 10:32:07;;;;;;;14.83;9.73;;;;;;;0.72;100.00;99151.44;1680886;83;21179;-89
2021/12/08 10:34:46;;;;;;;13.57;8.87;;;;;;;0.72;100.00;99151.44;1672746;84;21106;-88
2021/12/08 10:37:10;;;;;;;10.40;7.90;;;;;;;0.72;100.00;99148.25;1643823;85;21066;-80
2021/12/08 10:39:46;;;;;;;10.80;7.20;;;;;;;0.72;100.00;99143.50;1673365;84;21043;-79
2021/12/08 10:42:28;;;;;;;10.27;7.10;;;;;;;0.71;100.00;99147.15;1627977;87;21047;-80
2021/12/08 10:45:16;;;;;;;10.72;8.80;;;;;;;0.72;100.00;99141.64;1622737;87;27550;-80
2021/12/08 10:47:55;;;;;;;11.57;8.00;;;;;;;0.67;100.00;99141.95;1649876;86;21041;-72
2021/12/08 10:56:12;;;;;;;12.20;9.00;;;;;;;0.66;100.00;99131.87;1705377;82;21106;-74
2021/12/08 10:58:49;;;;;;;8.80;7.03;;;;;;;0.68;100.00;99130.33;1653798;85;21147;-77
2021/12/08 11:01:23;;;;;;;16.10;9.73;;;;;;;0.67;100.00;99120.78;1699147;84;21035;-74
2021/12/08 11:03:53;;;;;;;11.70;8.23;;;;;;;0.67;100.00;99122.11;1660347;84;21096;-74
2021/12/08 11:06:20;;;;;;;9.07;7.13;;;;;;;0.66;100.00;99116.00;1698490;84;21024;-76
2021/12/08 11:08:48;;;;;;;10.20;7.90;;;;;;;0.68;100.00;99119.24;1653846;85;20952;-73
2021/12/08 11:11:28;;;;;;;17.43;12.57;;;;;;;0.68;100.00;99110.48;1638865;85;21825;-75
2021/12/08 11:13:57;;;;;;;15.03;9.30;;;;;;;0.70;100.00;99117.22;1690925;82;20923;-71
2021/12/08 11:16:33;;;;;;;15.67;9.23;;;;;;;0.73;100.00;99116.81;1719468;82;21559;-73
2021/12/08 11:19:06;;;;;;;12.00;9.20;;;;;;;0.75;100.00;99124.56;1712688;82;21102;-76
2021/12/08 11:21:37;;;;;;;9.13;6.95;;;;;;;0.75;100.00;99124.05;1644192;87;21011;-72
2021/12/08 11:24:20;;;;;;;12.00;8.40;;;;;;;0.72;100.00;99120.47;1669927;86;21136;-70
2021/12/08 11:26:49;;;;;;;10.77;8.27;;;;;;;0.76;100.00;99127.02;1643735;87;21083;-71
2021/12/08 11:29:23;;;;;;;8.37;7.43;;;;;;;0.80;100.00;99124.77;1666575;84;21118;-71
2021/12/08 11:31:56;;;;;;;11.57;8.10;;;;;;;0.80;100.00;99122.95;1653186;85;21054;-71
2021/12/08 11:34:41;;;;;;;;;;;;;;;0.76;100.00;99117.75;1672728;86;21015;-80
2021/12/08 11:37:17;;;;;;;12.20;8.07;;;;;;;0.76;100.00;99112.46;1684595;84;21188;-81
2021/12/08 11:39:59;;;;;;;10.97;8.23;;;;;;;0.76;100.00;99111.14;1703594;84;21076;-87
2021/12/08 11:42:29;;;;;;;10.27;8.03;;;;;;;0.79;100.00;99109.40;1677183;84;21067;-80
2021/12/08 11:44:58;;;;;;;12.15;9.30;;;;;;;0.82;100.00;99105.52;1685983;84;21098;-81
2021/12/08 11:47:34;;;;;;;21.00;14.10;;;;;;;0.79;100.00;99099.32;1676837;84;21067;-78
2021/12/08 11:50:21;;;;;;;17.37;11.60;;;;;;;0.76;100.00;99092.61;1728489;83;21134;-77
2021/12/08 11:52:51;;;;;;;16.03;10.70;;;;;;;0.77;100.00;99096.05;1718130;83;20955;-77
2021/12/08 11:55:19;;;;;;;17.20;9.73;;;;;;;0.81;100.00;99092.00;1684026;84;21054;-73
2021/12/08 11:57:54;;;;;;;16.97;10.53;;;;;;;0.81;100.00;99080.09;1694259;83;21064;-75
2021/12/08 12:00:28;;;;;;;14.93;10.30;;;;;;;0.78;100.00;99082.62;1684709;84;21071;-74
2021/12/08 12:03:07;;;;;;;13.77;10.93;;;;;;;0.78;100.00;99085.27;1708579;83;21935;-77
2021/12/08 12:05:47;;;;;;;12.50;10.17;;;;;;;0.79;100.00;99074.17;1676599;84;21110;-78
2021/12/08 12:08:19;;;;;;;11.57;10.10;;;;;;;0.81;100.00;99077.45;1672990;85;33394;-90
2021/12/08 12:10:57;;;;;;;12.63;9.10;;;;;;;0.77;100.00;99080.16;1692987;83;21107;-88
2021/12/08 12:13:28;;;;;;;10.80;8.43;;;;;;;0.73;100.00;99077.63;1695042;84;21026;-87
2021/12/08 12:15:59;;;;;;;8.53;7.23;;;;;;;0.71;100.00;99086.28;1677097;84;21115;-87
2021/12/08 12:18:35;;;;;;;11.57;7.80;;;;;;;0.71;100.00;99081.81;1694277;84;21042;-88
2021/12/08 12:21:39;;;;;;;14.07;8.30;;;;;;;0.75;100.00;99080.89;1695256;84;21062;-87
2021/12/08 12:24:42;;;;;;;12.47;9.23;;;;;;;0.70;100.00;99084.66;1677091;84;21018;-86
2021/12/08 12:27:56;;;;;;;13.28;10.80;;;;;;;0.71;100.00;99082.31;1695436;84;21037;-86
2021/12/08 12:30:52;;;;;;;18.32;12.07;;;;;;;0.70;100.00;99088.63;1694636;84;21227;-85
2021/12/08 12:33:26;;;;;;;16.20;10.73;;;;;;;0.73;100.00;99088.20;1695191;84;21260;-87
2021/12/08 12:35:57;;;;;;;15.43;11.10;;;;;;;0.74;100.00;99089.34;1694437;84;21350;-85